Time;durP1;ratioP1;P1;durP2;ratioP2;P2;SDS_P1;SDS_P2;PMS_P1;PMS_P2;Temp;Humidity;BMP_temperature;BMP_pressure;BME280_temperature;BME280_humidity;BME280_pressure;Samples;Min_cycle;Max_cycle;Signal;HPM_P1;HPM_P2
2023/05/14 00:00:14;;;;;;;30.77;20.77;;;;;;;-145.18;100.00;46646.72;4924601;29;20062;-67
2023/05/14 00:02:40;;;;;;;36.10;22.20;;;;;;;-145.18;100.00;46646.72;4935172;29;20042;-67
2023/05/14 00:05:06;;;;;;;36.73;21.70;;;;;;;-145.18;100.00;46646.72;4935585;29;20036;-67
2023/05/14 00:07:32;;;;;;;33.80;20.93;;;;;;;-145.18;100.00;46644.78;4935283;29;20122;-68
2023/05/14 00:09:58;;;;;;;34.73;22.03;;;;;;;-145.18;100.00;46646.72;4935020;29;20193;-67
2023/05/14 00:12:25;;;;;;;32.50;20.53;;;;;;;-145.18;100.00;46648.69;4935283;29;20438;-67
2023/05/14 00:14:50;;;;;;;32.10;21.30;;;;;;;-145.18;100.00;46646.72;4935221;29;20064;-68
2023/05/14 00:17:16;;;;;;;32.60;21.80;;;;;;;-145.18;100.00;46646.72;4929023;29;20052;-68
2023/05/14 00:19:41;;;;;;;31.07;20.90;;;;;;;-145.18;100.00;46648.69;4935116;29;20086;-68
2023/05/14 00:22:07;;;;;;;29.90;20.10;;;;;;;-145.18;100.00;46648.69;4934719;29;20067;-67
2023/05/14 00:24:33;;;;;;;30.30;19.63;;;;;;;-145.18;100.00;46644.78;4933991;29;20040;-68
2023/05/14 00:26:59;;;;;;;32.73;20.47;;;;;;;-145.18;100.00;46648.69;4934857;29;20071;-68
2023/05/14 00:29:24;;;;;;;31.13;19.07;;;;;;;-145.18;100.00;46646.72;4934250;29;20063;-68
2023/05/14 00:31:50;;;;;;;29.77;18.83;;;;;;;-145.18;100.00;46644.78;4934848;29;20067;-68
2023/05/14 00:34:15;;;;;;;34.07;18.83;;;;;;;-145.18;100.00;46681.88;4933986;29;20128;-68
2023/05/14 00:36:40;;;;;;;29.67;19.37;;;;;;;-145.18;100.00;46646.72;4927591;29;20051;-67
2023/05/14 00:39:06;;;;;;;30.83;18.23;;;;;;;-145.18;100.00;46650.63;4934748;29;20040;-68
2023/05/14 00:41:31;;;;;;;27.20;17.33;;;;;;;-145.18;100.00;46646.72;4934682;29;20046;-68
2023/05/14 00:43:57;;;;;;;29.73;19.33;;;;;;;-145.18;100.00;46648.69;4934708;29;20063;-68
2023/05/14 00:46:22;;;;;;;26.83;17.47;;;;;;;-145.18;100.00;46642.81;4934329;29;20040;-68
2023/05/14 00:48:47;;;;;;;26.20;17.73;;;;;;;-145.18;100.00;46646.72;4917810;29;20279;-68
2023/05/14 00:51:13;;;;;;;30.57;18.47;;;;;;;-145.18;100.00;46646.72;4917582;29;20119;-68
2023/05/14 00:53:38;;;;;;;30.93;19.10;;;;;;;-145.18;100.00;46642.81;4934484;29;20040;-68
2023/05/14 00:56:04;;;;;;;28.57;17.73;;;;;;;-145.18;100.00;46648.69;4934612;29;20036;-68
2023/05/14 00:58:30;;;;;;;26.77;16.03;;;;;;;-145.18;100.00;46648.69;4934432;29;20039;-68
2023/05/14 01:00:55;;;;;;;26.13;16.37;;;;;;;-145.18;100.00;46652.59;4933640;29;20102;-67
2023/05/14 01:03:21;;;;;;;24.43;16.53;;;;;;;-145.18;100.00;46654.53;4934499;29;20452;-68
2023/05/14 01:05:52;;;;;;;28.03;17.00;;;;;;;-145.18;100.00;46648.69;4929686;29;20040;-68
2023/05/14 01:08:20;;;;;;;24.60;17.10;;;;;;;-145.18;100.00;46652.59;4933848;29;20042;-68
2023/05/14 01:10:54;;;;;;;25.50;16.73;;;;;;;-145.18;100.00;46652.59;4921718;29;20043;-67
2023/05/14 01:13:37;;;;;;;30.87;16.87;;;;;;;-145.18;100.00;46650.63;4915373;29;20064;-67
2023/05/14 01:16:03;;;;;;;28.20;15.67;;;;;;;-145.18;100.00;46652.59;4915477;29;20032;-68
2023/05/14 01:18:31;;;;;;;26.20;16.00;;;;;;;-145.18;100.00;46652.59;4915225;29;20048;-67
2023/05/14 01:20:56;;;;;;;24.30;16.10;;;;;;;-145.18;100.00;46654.53;4914876;29;20064;-68
2023/05/14 01:23:22;;;;;;;24.73;16.63;;;;;;;-145.18;100.00;46648.69;4929464;29;20101;-67
2023/05/14 01:25:47;;;;;;;28.00;15.57;;;;;;;-145.18;100.00;46658.44;4932309;29;20514;-67
2023/05/14 01:28:27;;;;;;;23.97;16.00;;;;;;;-145.18;100.00;46648.69;4933836;29;20043;-67
2023/05/14 01:31:26;;;;;;;26.13;16.57;;;;;;;-145.18;100.00;46656.50;4914816;29;20040;-68
2023/05/14 01:33:53;;;;;;;24.40;15.53;;;;;;;-145.18;100.00;46654.53;4915533;29;20040;-68
2023/05/14 01:36:19;;;;;;;23.87;14.70;;;;;;;-145.18;100.00;46652.59;4933744;29;20058;-68
2023/05/14 01:38:46;;;;;;;25.33;15.87;;;;;;;-145.18;100.00;46656.50;4933858;29;20497;-68
2023/05/14 01:41:13;;;;;;;21.67;14.30;;;;;;;-145.18;100.00;46650.63;4933636;29;20051;-68
2023/05/14 01:43:39;;;;;;;21.60;14.50;;;;;;;-145.18;100.00;46654.53;4933706;29;20092;-68
2023/05/14 01:46:04;;;;;;;29.17;16.37;;;;;;;-145.18;100.00;46652.59;4929716;29;20051;-68
2023/05/14 01:48:30;;;;;;;25.50;14.33;;;;;;;-145.18;100.00;46656.50;4928397;29;20068;-68
2023/05/14 01:50:55;;;;;;;30.57;15.63;;;;;;;-145.18;100.00;46650.63;4907738;29;20673;-68
2023/05/14 01:53:21;;;;;;;30.07;15.33;;;;;;;-145.18;100.00;46656.50;4914690;29;20067;-68
2023/05/14 01:55:46;;;;;;;27.57;16.60;;;;;;;-145.18;100.00;46652.59;4914059;29;20067;-68
2023/05/14 01:58:11;;;;;;;26.53;16.27;;;;;;;-145.18;100.00;46654.53;4920193;29;20121;-67
2023/05/14 02:03:16;;;;;;;31.80;16.97;;;;;;;-145.18;100.00;46652.59;5050537;23;20058;-67
2023/05/14 02:05:41;;;;;;;30.70;17.30;;;;;;;-145.18;100.00;46652.59;4936338;29;20111;-67
2023/05/14 02:08:07;;;;;;;26.63;15.87;;;;;;;-145.18;100.00;46650.63;4947714;29;20074;-68
2023/05/14 02:10:32;;;;;;;32.20;17.10;;;;;;;-145.18;100.00;46650.63;4933794;29;20420;-68
2023/05/14 02:12:57;;;;;;;29.87;16.73;;;;;;;-145.18;100.00;46652.59;4932995;29;20135;-68
2023/05/14 02:15:23;;;;;;;32.10;16.60;;;;;;;-145.18;100.00;46648.69;4933510;29;20555;-68
2023/05/14 02:17:48;;;;;;;27.77;16.73;;;;;;;-145.18;100.00;46642.81;4933117;29;20045;-67
2023/05/14 02:20:14;;;;;;;26.60;15.93;;;;;;;-145.18;100.00;46650.63;4942801;29;20063;-68
2023/05/14 02:22:41;;;;;;;29.63;16.67;;;;;;;-145.18;100.00;46648.69;4952208;29;20544;-67
2023/05/14 02:25:07;;;;;;;26.23;15.73;;;;;;;-145.18;100.00;46642.81;4952106;29;20039;-67
2023/05/14 02:27:32;;;;;;;27.40;16.10;;;;;;;-145.18;100.00;46644.78;4948345;29;20074;-68
2023/05/14 02:29:59;;;;;;;26.30;16.13;;;;;;;-145.18;100.00;46648.69;4939925;29;20070;-68
2023/05/14 02:32:26;;;;;;;33.73;16.37;;;;;;;-145.18;100.00;46642.81;4952115;29;20047;-67
2023/05/14 02:34:51;;;;;;;31.07;16.27;;;;;;;-145.18;100.00;46644.78;4952298;29;20031;-68
2023/05/14 02:37:16;;;;;;;30.03;16.50;;;;;;;-145.18;100.00;46648.69;4952120;29;20840;-68
2023/05/14 02:39:42;;;;;;;23.63;14.57;;;;;;;-145.18;100.00;46650.63;4947549;29;20556;-68
2023/05/14 02:42:07;;;;;;;25.60;15.10;;;;;;;-145.18;100.00;46646.72;4932854;29;20040;-68
2023/05/14 02:44:33;;;;;;;23.13;14.97;;;;;;;-145.18;100.00;46648.69;4933370;29;20070;-68
2023/05/14 02:46:58;;;;;;;28.63;15.00;;;;;;;-145.18;100.00;46652.59;4932838;29;20079;-68
2023/05/14 02:49:23;;;;;;;26.07;15.43;;;;;;;-145.18;100.00;46644.78;4934876;29;20035;-68
2023/05/14 02:51:49;;;;;;;23.97;14.37;;;;;;;-145.18;100.00;46648.69;4954452;28;20039;-68
2023/05/14 02:54:15;;;;;;;31.50;16.10;;;;;;;-145.18;100.00;46648.69;4952478;28;20039;-68
2023/05/14 02:56:40;;;;;;;25.33;15.43;;;;;;;-145.18;100.00;46646.72;4939453;29;20043;-68
2023/05/14 02:59:06;;;;;;;25.60;14.87;;;;;;;-145.18;100.00;46642.81;4939021;29;20445;-68
2023/05/14 03:01:31;;;;;;;27.53;15.23;;;;;;;-145.18;100.00;46650.63;4957724;29;20046;-68
2023/05/14 03:03:57;;;;;;;28.33;14.90;;;;;;;-145.18;100.00;46646.72;4974616;28;20050;-68
2023/05/14 03:06:22;;;;;;;29.07;15.10;;;;;;;-145.18;100.00;46648.69;4977889;28;20050;-68
2023/05/14 03:08:47;;;;;;;27.93;15.70;;;;;;;-145.18;100.00;46644.78;4977316;28;20495;-68
2023/05/14 03:11:13;;;;;;;29.87;15.77;;;;;;;-145.18;100.00;46640.88;4961877;28;20039;-68
2023/05/14 03:13:38;;;;;;;31.90;16.73;;;;;;;-145.18;100.00;46646.72;4958305;28;20035;-68
2023/05/14 03:16:04;;;;;;;26.53;15.70;;;;;;;-145.18;100.00;46642.81;4958066;29;20041;-68
2023/05/14 03:18:29;;;;;;;25.17;15.40;;;;;;;-145.18;100.00;46642.81;4965424;28;20085;-68
2023/05/14 03:20:54;;;;;;;27.13;15.87;;;;;;;-145.18;100.00;46642.81;4964129;28;20039;-68
2023/05/14 03:23:20;;;;;;;26.70;14.37;;;;;;;-145.18;100.00;46640.88;4958198;29;20039;-68
2023/05/14 03:25:45;;;;;;;34.80;15.50;;;;;;;-145.18;100.00;46642.81;4958527;28;20508;-68
2023/05/14 03:28:11;;;;;;;26.23;15.83;;;;;;;-145.18;100.00;46640.88;4957827;29;20043;-68
2023/05/14 03:30:36;;;;;;;32.47;15.77;;;;;;;-145.18;100.00;46640.88;4978440;28;20053;-68
2023/05/14 03:33:02;;;;;;;26.70;14.80;;;;;;;-145.18;100.00;46644.78;4959966;28;20042;-68
2023/05/14 03:35:27;;;;;;;30.83;15.73;;;;;;;-145.18;100.00;46638.91;4977689;28;20035;-68
2023/05/14 03:37:52;;;;;;;25.83;15.70;;;;;;;-145.18;100.00;46660.41;4977154;28;20134;-68
2023/05/14 03:40:18;;;;;;;26.47;15.80;;;;;;;-145.18;100.00;46642.81;4969392;28;20039;-68
2023/05/14 03:42:43;;;;;;;26.27;15.57;;;;;;;-145.18;100.00;46676.03;4958081;29;20033;-68
2023/05/14 03:45:09;;;;;;;31.23;16.50;;;;;;;-145.18;100.00;46638.91;4957998;29;20035;-69
2023/05/14 03:47:34;;;;;;;30.23;15.00;;;;;;;-145.18;100.00;46640.88;4957972;29;20039;-68
2023/05/14 03:50:00;;;;;;;32.40;14.63;;;;;;;-145.18;100.00;46676.03;4958994;28;20045;-68
2023/05/14 03:52:25;;;;;;;28.10;15.03;;;;;;;-145.18;100.00;46636.94;4957945;29;20122;-68
2023/05/14 03:54:50;;;;;;;29.43;15.30;;;;;;;-145.18;100.00;46660.41;4958001;28;20113;-68
2023/05/14 03:57:16;;;;;;;26.03;16.17;;;;;;;-145.18;100.00;46660.41;4958016;28;20042;-68
2023/05/14 03:59:41;;;;;;;27.43;15.03;;;;;;;-145.18;100.00;46660.41;4964314;28;20434;-68
2023/05/14 04:02:06;;;;;;;29.73;16.53;;;;;;;-145.18;100.00;46660.41;4959232;28;20043;-68
2023/05/14 04:04:32;;;;;;;33.67;16.50;;;;;;;-145.18;100.00;46660.41;4954220;28;20039;-68
2023/05/14 04:06:57;;;;;;;27.50;14.63;;;;;;;-145.18;100.00;46676.03;4954615;29;20031;-68
2023/05/14 04:09:23;;;;;;;29.50;15.87;;;;;;;-145.18;100.00;46635.00;4961829;28;20038;-68
2023/05/14 04:11:48;;;;;;;29.10;16.07;;;;;;;-145.18;100.00;46660.41;4959252;28;20047;-68
2023/05/14 04:14:13;;;;;;;26.40;15.80;;;;;;;-145.18;100.00;46660.41;4965490;28;20027;-69
2023/05/14 04:16:39;;;;;;;28.20;16.43;;;;;;;-145.18;100.00;46638.91;4961684;28;20098;-68
2023/05/14 04:19:05;;;;;;;30.67;16.30;;;;;;;-145.18;100.00;46636.94;4960212;28;20045;-68
2023/05/14 04:21:31;;;;;;;27.20;15.53;;;;;;;-145.18;100.00;46638.91;4961445;28;20057;-68
2023/05/14 04:23:56;;;;;;;28.33;16.50;;;;;;;-145.18;100.00;46635.00;4951504;28;20479;-68
2023/05/14 04:26:21;;;;;;;29.80;16.83;;;;;;;-145.18;100.00;46636.94;4966648;28;20054;-68
2023/05/14 04:28:47;;;;;;;26.80;15.07;;;;;;;-145.18;100.00;46633.06;4959416;28;20039;-68
2023/05/14 04:31:12;;;;;;;33.43;16.03;;;;;;;-145.18;100.00;46636.94;4959287;28;20018;-68
2023/05/14 04:33:38;;;;;;;25.60;15.70;;;;;;;-145.18;100.00;46636.94;4960220;28;20082;-68
2023/05/14 04:36:04;;;;;;;26.70;14.87;;;;;;;-145.18;100.00;46636.94;4966865;28;20030;-68
2023/05/14 04:38:30;;;;;;;26.73;16.27;;;;;;;-145.18;100.00;46638.91;4966573;28;20057;-68
2023/05/14 04:40:56;;;;;;;29.30;16.03;;;;;;;-145.18;100.00;46640.88;4967715;28;20452;-68
2023/05/14 04:43:21;;;;;;;35.23;16.23;;;;;;;-145.18;100.00;46638.91;4958130;28;20118;-68
2023/05/14 04:45:47;;;;;;;28.47;16.10;;;;;;;-145.18;100.00;46642.81;4952517;28;20047;-68
2023/05/14 04:48:12;;;;;;;36.73;16.97;;;;;;;-145.18;100.00;46638.91;4959462;28;20069;-68
2023/05/14 04:50:38;;;;;;;26.77;16.30;;;;;;;-145.18;100.00;46636.94;4967409;28;20042;-68
2023/05/14 04:53:03;;;;;;;26.63;15.80;;;;;;;-145.18;100.00;46638.91;4969604;28;20035;-68
2023/05/14 04:55:28;;;;;;;30.20;16.33;;;;;;;-145.18;100.00;46638.91;4953879;28;20452;-69
2023/05/14 04:57:54;;;;;;;27.83;15.67;;;;;;;-145.18;100.00;46640.88;4952939;29;20069;-68
2023/05/14 05:00:20;;;;;;;32.43;15.80;;;;;;;-145.18;100.00;46640.88;4969157;28;20180;-68
2023/05/14 05:02:46;;;;;;;27.43;16.57;;;;;;;-145.18;100.00;46642.81;4972563;28;20081;-68
2023/05/14 05:05:11;;;;;;;35.70;16.07;;;;;;;-145.18;100.00;46640.88;4973182;28;20491;-68
2023/05/14 05:07:37;;;;;;;29.43;17.47;;;;;;;-145.18;100.00;46640.88;4973050;28;20034;-68
2023/05/14 05:10:03;;;;;;;26.27;15.53;;;;;;;-145.18;100.00;46638.91;4969256;28;20043;-68
2023/05/14 05:12:29;;;;;;;33.60;16.93;;;;;;;-145.18;100.00;46642.81;4971556;28;20046;-68
2023/05/14 05:14:56;;;;;;;29.97;16.10;;;;;;;-145.18;100.00;46638.91;4972332;28;20524;-68
2023/05/14 05:17:23;;;;;;;37.37;17.43;;;;;;;-145.18;100.00;46636.94;4966549;28;20535;-68
2023/05/14 05:19:49;;;;;;;24.93;15.40;;;;;;;-145.18;100.00;46638.91;4969556;28;20054;-68
2023/05/14 05:22:14;;;;;;;28.00;15.10;;;;;;;-145.18;100.00;46636.94;4955826;28;20516;-68
2023/05/14 05:24:40;;;;;;;26.13;15.77;;;;;;;-145.18;100.00;46638.91;4959093;28;20069;-68
2023/05/14 05:27:05;;;;;;;28.30;16.40;;;;;;;-145.18;100.00;46638.91;4957129;28;20078;-68
2023/05/14 05:29:31;;;;;;;33.80;16.90;;;;;;;-145.18;100.00;46635.00;4959236;28;20194;-68
2023/05/14 05:31:56;;;;;;;34.20;17.10;;;;;;;-145.18;100.00;46638.91;4953345;29;20031;-68
2023/05/14 05:34:22;;;;;;;31.23;16.47;;;;;;;-145.18;100.00;46640.88;4939399;29;20027;-68
2023/05/14 05:36:47;;;;;;;27.63;16.30;;;;;;;-145.18;100.00;46638.91;4953132;28;20039;-68
2023/05/14 05:39:12;;;;;;;30.17;16.80;;;;;;;-145.18;100.00;46636.94;4952775;28;20062;-68
2023/05/14 05:41:38;;;;;;;27.43;16.23;;;;;;;-145.18;100.00;46636.94;4953251;29;20031;-68
2023/05/14 05:44:03;;;;;;;30.63;16.73;;;;;;;-145.18;100.00;46636.94;4956406;28;20042;-68
2023/05/14 05:46:29;;;;;;;25.40;15.43;;;;;;;-145.18;100.00;46640.88;4972456;28;20130;-68
2023/05/14 05:48:54;;;;;;;28.40;15.07;;;;;;;-145.18;100.00;46640.88;4955301;28;20027;-68
2023/05/14 05:51:20;;;;;;;30.67;15.67;;;;;;;-145.18;100.00;46638.91;4953351;29;20121;-68
2023/05/14 05:53:45;;;;;;;27.20;16.10;;;;;;;-145.18;100.00;46646.72;4936729;28;20399;-69
2023/05/14 05:56:11;;;;;;;30.30;16.23;;;;;;;-145.18;100.00;46640.88;4972030;28;20054;-69
2023/05/14 05:58:36;;;;;;;27.73;15.33;;;;;;;-145.18;100.00;46642.81;4971351;28;20035;-69
2023/05/14 06:01:01;;;;;;;28.27;16.13;;;;;;;-145.18;100.00;46636.94;4971842;28;20043;-69
2023/05/14 06:03:27;;;;;;;31.63;16.90;;;;;;;-145.18;100.00;46640.88;4971634;28;20558;-69
2023/05/14 06:05:52;;;;;;;29.93;17.33;;;;;;;-145.18;100.00;46636.94;4945090;28;20098;-69
2023/05/14 06:08:17;;;;;;;29.57;15.50;;;;;;;-145.18;100.00;46636.94;4952595;29;20047;-68
2023/05/14 06:10:43;;;;;;;25.67;15.50;;;;;;;-145.18;100.00;46636.94;4951298;28;20050;-69
2023/05/14 06:13:08;;;;;;;32.17;14.97;;;;;;;-145.18;100.00;46640.88;4952343;29;20032;-68
2023/05/14 06:15:34;;;;;;;24.93;15.83;;;;;;;-145.18;100.00;46640.88;4952805;28;20552;-69
2023/05/14 06:17:59;;;;;;;30.17;17.07;;;;;;;-145.18;100.00;46636.94;4960511;28;20133;-69
2023/05/14 06:20:24;;;;;;;30.47;15.27;;;;;;;-145.18;100.00;46638.91;4963129;28;20047;-69
2023/05/14 06:22:50;;;;;;;28.37;15.57;;;;;;;-145.18;100.00;46642.81;4952180;29;20473;-69
2023/05/14 06:25:15;;;;;;;28.27;16.27;;;;;;;-145.18;100.00;46638.91;4966526;28;20113;-69
2023/05/14 06:27:41;;;;;;;29.27;15.77;;;;;;;-145.18;100.00;46644.78;4965072;28;20031;-69
2023/05/14 06:30:07;;;;;;;28.27;15.13;;;;;;;-145.18;100.00;46640.88;4952288;28;20123;-69
2023/05/14 06:32:32;;;;;;;26.60;14.97;;;;;;;-145.18;100.00;46642.81;4952606;29;20047;-69
2023/05/14 06:34:58;;;;;;;26.70;16.17;;;;;;;-145.18;100.00;46638.91;4965069;28;20039;-69
2023/05/14 06:37:23;;;;;;;29.90;16.23;;;;;;;-145.18;100.00;46640.88;4971612;28;20093;-69
2023/05/14 06:39:49;;;;;;;24.77;15.27;;;;;;;-145.18;100.00;46636.94;4967533;28;20045;-69
2023/05/14 06:42:15;;;;;;;28.33;14.53;;;;;;;-145.18;100.00;46642.81;4952204;29;20082;-69
2023/05/14 06:44:41;;;;;;;26.43;15.33;;;;;;;-145.18;100.00;46644.78;4951973;28;20126;-69
2023/05/14 06:47:07;;;;;;;29.27;14.30;;;;;;;-145.18;100.00;46640.88;4952088;29;20121;-69
2023/05/14 06:49:33;;;;;;;26.13;14.23;;;;;;;-145.18;100.00;46644.78;4952052;28;20581;-69
2023/05/14 06:51:58;;;;;;;22.53;13.33;;;;;;;-145.18;100.00;46642.81;4954943;28;20035;-69
2023/05/14 06:54:24;;;;;;;22.27;12.70;;;;;;;-145.18;100.00;46648.69;4965124;28;20118;-69
2023/05/14 06:56:49;;;;;;;22.87;13.73;;;;;;;-145.18;100.00;46646.72;4956576;28;20047;-69
2023/05/14 06:59:15;;;;;;;22.30;13.87;;;;;;;-145.18;100.00;46650.63;4953158;28;20039;-68
2023/05/14 07:01:40;;;;;;;20.63;12.17;;;;;;;-145.18;100.00;46648.69;4967236;28;20384;-68
2023/05/14 07:04:05;;;;;;;22.47;13.53;;;;;;;-145.18;100.00;46648.69;4970402;28;20051;-69
2023/05/14 07:06:31;;;;;;;21.27;13.43;;;;;;;-145.18;100.00;46648.69;4963831;28;20441;-69
2023/05/14 07:08:57;;;;;;;20.07;12.57;;;;;;;-145.18;100.00;46648.69;4951405;29;20043;-69
2023/05/14 07:11:22;;;;;;;20.97;13.53;;;;;;;-145.18;100.00;46644.78;4961953;28;20094;-68
2023/05/14 07:13:47;;;;;;;24.70;14.40;;;;;;;-145.18;100.00;46644.78;4969754;28;20126;-69
2023/05/14 07:16:13;;;;;;;24.73;15.13;;;;;;;-145.18;100.00;46646.72;4968714;28;20055;-69
2023/05/14 07:18:39;;;;;;;23.30;15.27;;;;;;;-145.18;100.00;46646.72;4971062;28;20031;-68
2023/05/14 07:21:05;;;;;;;20.83;13.57;;;;;;;-145.18;100.00;46648.69;4965383;28;20126;-68
2023/05/14 07:23:31;;;;;;;21.53;14.67;;;;;;;-145.18;100.00;46656.50;4955116;28;20039;-68
2023/05/14 07:25:57;;;;;;;22.97;14.63;;;;;;;-145.18;100.00;46662.34;4953807;28;20133;-69
2023/05/14 07:28:22;;;;;;;22.90;14.70;;;;;;;-145.18;100.00;46658.44;4958205;28;20125;-68
2023/05/14 07:30:47;;;;;;;21.77;13.53;;;;;;;-145.18;100.00;46662.34;4956062;28;20070;-68
2023/05/14 07:33:13;;;;;;;22.63;14.30;;;;;;;-145.18;100.00;46664.31;4957533;28;20559;-69
2023/05/14 07:35:38;;;;;;;24.63;13.43;;;;;;;-145.18;100.00;46668.22;4959031;28;20039;-68
2023/05/14 07:38:05;;;;;;;20.70;13.90;;;;;;;-145.18;100.00;46668.22;4971995;28;20073;-69
2023/05/14 07:40:30;;;;;;;26.53;14.63;;;;;;;-145.18;100.00;46666.25;4974850;28;20057;-69
2023/05/14 07:42:55;;;;;;;27.50;13.70;;;;;;;-145.18;100.00;46662.34;4954092;28;20042;-69
2023/05/14 07:45:21;;;;;;;20.40;14.10;;;;;;;-145.18;100.00;46662.34;4974463;28;20042;-68
2023/05/14 07:47:50;;;;;;;21.40;14.27;;;;;;;-145.18;100.00;46668.22;4974663;28;20034;-69
2023/05/14 07:50:16;;;;;;;22.50;14.43;;;;;;;-145.18;100.00;46666.25;4974464;28;20047;-69
2023/05/14 07:52:41;;;;;;;24.27;14.33;;;;;;;-145.18;100.00;46664.31;4973600;28;20085;-69
2023/05/14 07:55:07;;;;;;;22.13;14.47;;;;;;;-145.18;100.00;46668.22;4954787;29;20480;-69
2023/05/14 07:57:32;;;;;;;19.40;13.70;;;;;;;-145.18;100.00;46668.22;4955172;28;20051;-69
2023/05/14 07:59:58;;;;;;;23.63;14.57;;;;;;;-145.18;100.00;46668.22;4954870;28;20050;-69
2023/05/14 08:02:23;;;;;;;19.70;14.13;;;;;;;-145.18;100.00;46670.16;4954864;28;20034;-68
2023/05/14 08:04:49;;;;;;;20.57;13.50;;;;;;;-145.18;100.00;46672.13;4954798;29;20463;-68
2023/05/14 08:07:14;;;;;;;21.30;13.87;;;;;;;-145.18;100.00;46676.03;4973144;28;20265;-68
2023/05/14 08:09:39;;;;;;;20.70;12.97;;;;;;;-145.18;100.00;46672.13;4974229;28;20058;-68
2023/05/14 08:12:06;;;;;;;19.97;13.00;;;;;;;-145.18;100.00;46676.03;4974159;28;20066;-68
2023/05/14 08:14:31;;;;;;;20.03;12.93;;;;;;;-145.18;100.00;46672.13;4974098;28;20035;-69
2023/05/14 08:16:57;;;;;;;23.70;12.73;;;;;;;-145.18;100.00;46677.97;4960051;28;20055;-69
2023/05/14 08:19:23;;;;;;;25.43;13.47;;;;;;;-145.18;100.00;46672.13;4973876;28;20129;-69
2023/05/14 08:21:48;;;;;;;22.57;12.60;;;;;;;-145.18;100.00;46674.06;4974195;28;20042;-69
2023/05/14 08:24:14;;;;;;;17.23;12.53;;;;;;;-145.18;100.00;46677.97;4973727;28;20035;-68
2023/05/14 08:26:39;;;;;;;18.50;11.67;;;;;;;-145.18;100.00;46662.34;4961243;28;20098;-69
2023/05/14 08:29:04;;;;;;;17.03;11.53;;;;;;;-145.18;100.00;46656.50;4954886;28;20037;-69
2023/05/14 08:31:30;;;;;;;20.87;10.53;;;;;;;-145.18;100.00;46658.44;4956674;28;20395;-68
2023/05/14 08:33:55;;;;;;;19.13;11.93;;;;;;;-145.18;100.00;46652.59;4973456;28;20088;-68
2023/05/14 08:36:21;;;;;;;17.93;10.77;;;;;;;-145.18;100.00;46660.41;4973625;28;20035;-68
2023/05/14 08:38:47;;;;;;;16.83;11.13;;;;;;;-145.18;100.00;46677.97;4973514;28;20456;-69
2023/05/14 08:41:14;;;;;;;20.10;11.60;;;;;;;-145.18;100.00;46670.16;4972469;28;20042;-68
2023/05/14 08:43:54;;;;;;;20.00;11.97;;;;;;;-145.18;100.00;46664.31;4954171;29;20031;-69
2023/05/14 08:46:22;;;;;;;18.93;11.77;;;;;;;-145.18;100.00;46658.44;4954141;28;20031;-69
2023/05/14 08:48:55;;;;;;;16.47;11.90;;;;;;;-145.18;100.00;46660.41;4953985;28;20035;-68
2023/05/14 08:51:21;;;;;;;18.93;11.53;;;;;;;-145.18;100.00;46638.91;4953971;29;20094;-69
2023/05/14 08:53:46;;;;;;;19.50;11.80;;;;;;;-145.18;100.00;46633.06;4960511;28;20472;-69
2023/05/14 08:56:13;;;;;;;18.57;11.27;;;;;;;-145.18;100.00;46636.94;4973157;28;20166;-68
2023/05/14 08:58:38;;;;;;;15.93;11.20;;;;;;;-145.18;100.00;46642.81;4972965;28;20058;-69
2023/05/14 09:01:04;;;;;;;21.90;12.13;;;;;;;-145.18;100.00;46635.00;4973328;28;20488;-69
2023/05/14 09:03:30;;;;;;;20.47;11.40;;;;;;;-145.18;100.00;46613.50;4972868;28;20444;-69
2023/05/14 09:05:56;;;;;;;17.83;11.60;;;;;;;-145.18;100.00;46570.53;4971967;28;20542;-68
2023/05/14 09:08:22;;;;;;;18.57;10.60;;;;;;;-145.18;100.00;46556.88;4972982;28;20054;-69
2023/05/14 09:10:47;;;;;;;16.03;10.97;;;;;;;-145.18;100.00;46549.06;4972983;28;20031;-69
2023/05/14 09:13:13;;;;;;;15.13;10.80;;;;;;;-145.18;100.00;46572.50;4972844;28;20047;-69
2023/05/14 09:15:40;;;;;;;21.10;11.77;;;;;;;-145.18;100.00;46562.72;4972988;28;20035;-69
2023/05/14 09:18:05;;;;;;;19.33;11.37;;;;;;;-145.18;100.00;46547.09;4967548;28;20062;-69
2023/05/14 09:20:31;;;;;;;16.90;11.53;;;;;;;-145.18;100.00;46547.09;4953613;28;20484;-68
2023/05/14 09:22:58;;;;;;;16.13;11.23;;;;;;;-145.18;100.00;46554.91;4953287;29;20042;-68
2023/05/14 09:25:30;;;;;;;18.17;11.47;;;;;;;-145.18;100.00;46558.81;4961554;28;20034;-69
2023/05/14 09:27:57;;;;;;;18.70;10.50;;;;;;;-145.18;100.00;46564.69;4972744;28;20035;-69
2023/05/14 09:30:23;;;;;;;15.40;10.97;;;;;;;-145.18;100.00;46560.78;4963126;28;20038;-68
2023/05/14 09:32:52;;;;;;;13.83;10.00;;;;;;;-145.18;100.00;46556.88;4953305;29;20035;-68
2023/05/14 09:35:23;;;;;;;18.97;10.10;;;;;;;-145.18;100.00;46556.88;4953040;29;20059;-69
2023/05/14 09:37:51;;;;;;;15.80;10.47;;;;;;;-145.18;100.00;46549.06;4953368;28;20040;-68
2023/05/14 09:40:18;;;;;;;13.40;9.57;;;;;;;-145.18;100.00;46556.88;4952934;29;20023;-68
2023/05/14 09:42:44;;;;;;;14.20;11.00;;;;;;;-145.18;100.00;46554.91;4963930;28;20030;-69
2023/05/14 09:45:10;;;;;;;16.73;10.87;;;;;;;-145.18;100.00;46551.00;4972130;28;20669;-69
2023/05/14 09:47:37;;;;;;;17.50;11.70;;;;;;;-145.18;100.00;46554.91;4972530;28;20037;-69
2023/05/14 09:50:03;;;;;;;13.50;9.77;;;;;;;-145.18;100.00;46562.72;4971888;28;20578;-69
2023/05/14 09:52:29;;;;;;;15.53;9.83;;;;;;;-145.18;100.00;46558.81;4972513;28;20043;-69
2023/05/14 09:54:54;;;;;;;20.10;11.47;;;;;;;-145.18;100.00;46554.91;4959390;28;20045;-68
2023/05/14 09:57:20;;;;;;;18.50;11.07;;;;;;;-145.18;100.00;46564.69;4935800;29;20050;-69
2023/05/14 09:59:46;;;;;;;16.20;10.93;;;;;;;-145.18;100.00;46562.72;4952791;29;20099;-69
2023/05/14 10:02:36;;;;;;;19.20;11.90;;;;;;;-145.18;100.00;46560.78;4959644;28;20109;-69
2023/05/14 10:05:03;;;;;;;12.70;10.30;;;;;;;-145.18;100.00;46566.63;4954357;28;20647;-69
2023/05/14 10:07:35;;;;;;;19.70;11.30;;;;;;;-145.18;100.00;46566.63;4957205;28;20404;-69
2023/05/14 10:10:06;;;;;;;15.40;9.87;;;;;;;-145.18;100.00;46568.59;4952593;29;20401;-69
2023/05/14 10:12:35;;;;;;;17.90;10.03;;;;;;;-145.18;100.00;46564.69;4952795;29;20495;-69
2023/05/14 10:15:05;;;;;;;17.10;9.73;;;;;;;-145.18;100.00;46570.53;4952330;29;20039;-68
2023/05/14 10:17:34;;;;;;;17.50;10.17;;;;;;;-145.18;100.00;46570.53;4952731;29;20086;-68
2023/05/14 10:20:01;;;;;;;12.80;9.83;;;;;;;-145.18;100.00;46574.44;4970391;28;20140;-69
2023/05/14 10:22:32;;;;;;;15.30;10.00;;;;;;;-145.18;100.00;46574.44;4959381;28;20039;-69
2023/05/14 10:24:58;;;;;;;14.83;9.97;;;;;;;-145.18;100.00;46574.44;4952249;28;20027;-69
2023/05/14 10:27:24;;;;;;;13.60;9.47;;;;;;;-145.18;100.00;46582.25;4952418;28;20027;-69
2023/05/14 10:29:53;;;;;;;15.03;10.47;;;;;;;-145.18;100.00;46574.44;4955157;28;20027;-69
2023/05/14 10:32:19;;;;;;;23.77;10.53;;;;;;;-145.18;100.00;46570.53;4971466;28;20041;-68
2023/05/14 10:34:45;;;;;;;15.47;9.97;;;;;;;-145.18;100.00;46570.53;4971206;28;20034;-69
2023/05/14 10:37:11;;;;;;;15.93;10.50;;;;;;;-145.18;100.00;46576.41;4971341;28;20117;-69
2023/05/14 10:39:40;;;;;;;15.97;10.10;;;;;;;-145.18;100.00;46572.50;4971548;28;20045;-69
2023/05/14 10:42:09;;;;;;;14.33;10.50;;;;;;;-145.18;100.00;46611.56;4967987;28;20042;-69
2023/05/14 10:44:35;;;;;;;17.10;10.03;;;;;;;-145.18;100.00;46580.31;4952356;29;20036;-69
2023/05/14 10:47:01;;;;;;;15.03;9.93;;;;;;;-145.18;100.00;46572.50;4952099;29;20500;-68
2023/05/14 10:49:26;;;;;;;17.23;9.80;;;;;;;-145.18;100.00;46590.06;4963485;28;20050;-68
2023/05/14 10:51:53;;;;;;;13.73;9.53;;;;;;;-145.18;100.00;46590.06;4971694;28;20027;-68